Time;durP1;ratioP1;P1;durP2;ratioP2;P2;SDS_P1;SDS_P2;PMS_P1;PMS_P2;Temp;Humidity;BMP_temperature;BMP_pressure;BME280_temperature;BME280_humidity;BME280_pressure;Samples;Min_cycle;Max_cycle;Signal;HPM_P1;HPM_P2
2023/06/16 00:01:39;;;;;;;7.90;4.05;;;18.50;82.80;;;;;;5019470;28;20069;-76
2023/06/16 00:04:09;;;;;;;6.57;3.80;;;18.50;82.90;;;;;;5026641;28;20041;-77
2023/06/16 00:06:48;;;;;;;7.03;3.90;;;18.40;82.80;;;;;;5015218;28;20079;-76
2023/06/16 00:10:01;;;;;;;5.00;3.95;;;18.40;83.00;;;;;;5020689;28;20029;-78
2023/06/16 00:12:40;;;;;;;6.70;3.53;;;18.30;83.30;;;;;;5021418;28;20021;-77
2023/06/16 00:15:28;;;;;;;;;;;18.30;83.50;;;;;;5030249;28;20076;-77
2023/06/16 00:18:01;;;;;;;5.47;3.65;;;18.30;83.50;;;;;;5026958;28;19909;-78
2023/06/16 00:20:32;;;;;;;6.90;3.67;;;;;;;;;;5020018;28;20095;-76
2023/06/16 00:23:35;;;;;;;5.75;3.63;;;18.10;84.20;;;;;;5017705;28;20042;-76
2023/06/16 00:26:09;;;;;;;5.22;3.70;;;18.10;84.30;;;;;;4995380;28;20048;-76
2023/06/16 00:28:40;;;;;;;8.05;3.90;;;18.10;84.50;;;;;;5021067;28;20025;-76
2023/06/16 00:31:37;;;;;;;6.82;3.83;;;;;;;;;;5035160;28;20105;-76
2023/06/16 00:34:27;;;;;;;8.73;4.28;;;18.00;84.90;;;;;;5060701;28;20058;-79
2023/06/16 00:37:36;;;;;;;;;;;17.90;85.20;;;;;;5068063;28;20033;-77
2023/06/16 00:40:28;;;;;;;5.40;3.67;;;17.80;85.50;;;;;;5074707;28;19920;-76
2023/06/16 00:43:35;;;;;;;6.50;3.80;;;17.80;85.80;;;;;;5069648;28;20119;-76
2023/06/16 00:46:23;;;;;;;5.97;3.88;;;17.70;86.40;;;;;;5065134;28;20036;-77
2023/06/16 00:49:03;;;;;;;6.47;4.35;;;17.60;86.80;;;;;;5062692;28;20051;-79
2023/06/16 00:51:30;;;;;;;7.93;4.28;;;17.60;86.90;;;;;;5065345;28;20048;-76
2023/06/16 00:53:59;;;;;;;8.77;4.13;;;17.60;87.20;;;;;;5075856;28;20084;-75
2023/06/16 00:56:29;;;;;;;6.40;4.15;;;;;;;;;;5077310;28;20074;-77
2023/06/16 00:59:02;;;;;;;8.20;4.18;;;17.50;87.60;;;;;;5057147;28;20039;-76
2023/06/16 01:01:38;;;;;;;6.25;3.88;;;;;;;;;;5054480;28;20052;-78
2023/06/16 01:04:05;;;;;;;7.53;4.28;;;17.40;88.10;;;;;;5074929;28;20074;-76
2023/06/16 01:07:20;;;;;;;9.55;4.18;;;17.40;88.10;;;;;;5062551;28;20048;-76
2023/06/16 01:10:41;;;;;;;6.30;4.10;;;17.30;88.80;;;;;;5056383;28;20024;-77
2023/06/16 01:13:27;;;;;;;6.57;4.03;;;17.30;88.80;;;;;;5014274;28;20117;-76
2023/06/16 01:16:51;;;;;;;6.93;4.10;;;17.20;89.10;;;;;;5052843;28;20033;-76
2023/06/16 01:19:46;;;;;;;7.88;4.32;;;17.30;89.20;;;;;;5066280;28;20047;-76
2023/06/16 01:22:35;;;;;;;6.63;4.40;;;17.30;89.50;;;;;;5064339;28;20135;-77
2023/06/16 01:25:31;;;;;;;30.95;14.02;;;17.20;89.60;;;;;;5072760;28;20501;-77
2023/06/16 01:28:34;;;;;;;6.05;3.88;;;17.30;90.00;;;;;;5074953;28;20085;-75
2023/06/16 01:31:28;;;;;;;5.25;3.90;;;17.20;89.90;;;;;;5066319;28;20127;-75
2023/06/16 01:33:55;;;;;;;4.80;3.85;;;17.10;90.00;;;;;;5054401;28;20073;-76
2023/06/16 01:37:07;;;;;;;8.07;4.03;;;17.10;90.20;;;;;;5068675;28;20108;-76
2023/06/16 01:40:11;;;;;;;5.63;3.72;;;17.10;90.00;;;;;;5050647;28;20102;-77
2023/06/16 01:42:42;;;;;;;7.50;4.30;;;17.00;90.20;;;;;;5056578;28;20052;-77
2023/06/16 01:45:14;;;;;;;6.72;4.40;;;16.90;90.40;;;;;;5071844;28;20024;-77
2023/06/16 01:47:44;;;;;;;5.45;4.10;;;16.90;90.40;;;;;;5067777;28;20027;-74
2023/06/16 01:50:16;;;;;;;7.30;4.05;;;16.80;90.60;;;;;;5068126;28;20127;-76
2023/06/16 01:53:04;;;;;;;6.07;4.13;;;16.80;90.60;;;;;;5056629;28;20021;-76
2023/06/16 01:55:31;;;;;;;4.85;3.63;;;;;;;;;;5052526;28;20379;-75
2023/06/16 01:58:18;;;;;;;6.88;3.90;;;16.70;90.90;;;;;;5068016;28;20079;-76
2023/06/16 02:00:58;;;;;;;6.55;3.97;;;16.70;91.00;;;;;;5045710;28;20119;-76
2023/06/16 02:03:50;;;;;;;5.65;3.97;;;16.70;91.20;;;;;;5050102;28;20044;-75
2023/06/16 02:06:39;;;;;;;5.55;4.00;;;16.60;91.20;;;;;;5075007;28;20025;-77
2023/06/16 02:09:18;;;;;;;6.37;3.83;;;16.60;91.50;;;;;;5071291;28;20228;-75
2023/06/16 02:11:45;;;;;;;7.72;4.07;;;;;;;;;;5071858;28;20162;-76
2023/06/16 02:14:21;;;;;;;7.93;4.10;;;16.60;91.70;;;;;;5052977;28;20036;-77
2023/06/16 02:16:50;;;;;;;6.90;4.13;;;16.60;91.80;;;;;;5044444;28;20029;-77
2023/06/16 02:19:23;;;;;;;9.07;4.57;;;16.50;91.90;;;;;;5039913;28;20067;-79
2023/06/16 02:21:57;;;;;;;8.07;4.00;;;16.50;91.90;;;;;;5049625;28;20039;-76
2023/06/16 02:24:27;;;;;;;6.38;4.03;;;16.40;92.10;;;;;;5051448;28;20045;-76
2023/06/16 02:27:06;;;;;;;4.88;3.67;;;16.40;92.40;;;;;;5071552;28;20032;-75
2023/06/16 02:29:33;;;;;;;7.88;4.18;;;;;;;;;;5076047;28;20059;-76
2023/06/16 02:31:58;;;;;;;5.70;4.00;;;16.30;92.60;;;;;;5070685;28;20116;-76
2023/06/16 02:34:31;;;;;;;7.75;4.35;;;16.30;92.80;;;;;;5074868;28;20062;-77
2023/06/16 02:37:29;;;;;;;6.22;3.80;;;16.20;92.90;;;;;;5069233;28;20107;-78
2023/06/16 02:39:59;;;;;;;7.00;4.45;;;16.10;93.30;;;;;;5071554;28;20040;-76
2023/06/16 02:42:26;;;;;;;6.00;4.00;;;16.10;93.40;;;;;;5071228;28;20119;-75
2023/06/16 02:45:16;;;;;;;10.35;4.57;;;16.00;93.70;;;;;;5074774;28;20091;-74
2023/06/16 02:47:45;;;;;;;6.55;3.78;;;16.00;93.80;;;;;;5089435;28;20020;-75
2023/06/16 02:50:22;;;;;;;6.47;4.15;;;16.10;93.80;;;;;;5066256;28;20072;-76
2023/06/16 02:52:51;;;;;;;6.22;4.03;;;16.10;94.10;;;;;;5057084;28;20028;-77
2023/06/16 02:55:27;;;;;;;5.22;3.92;;;16.00;94.10;;;;;;5062878;28;20048;-80
2023/06/16 02:57:59;;;;;;;11.05;4.60;;;16.00;94.20;;;;;;5074018;28;20032;-77
2023/06/16 03:00:26;;;;;;;7.28;4.18;;;;;;;;;;5141388;22;20043;-80
2023/06/16 03:05:27;;;;;;;7.20;4.30;;;;;;;;;;5220655;22;20047;-80
2023/06/16 03:07:53;;;;;;;8.52;4.30;;;;;;;;;;5138135;27;20058;-80
2023/06/16 03:10:20;;;;;;;6.40;4.13;;;;;;;;;;5130378;27;20094;-79
2023/06/16 03:12:47;;;;;;;5.80;3.97;;;;;;;;;;5107123;22;20107;-81
2023/06/16 03:15:18;;;;;;;5.40;4.13;;;;;;;;;;5087154;28;20044;-80
2023/06/16 03:17:47;;;;;;;5.80;4.20;;;;;;;;;;5095555;28;20508;-82
2023/06/16 03:20:16;;;;;;;7.13;4.22;;;;;;;;;;5095516;28;20121;-81
2023/06/16 03:22:49;;;;;;;6.47;4.67;;;;;;;;;;5088053;28;20032;-82
2023/06/16 03:25:16;;;;;;;5.60;4.20;;;;;;;;;;5090109;28;20032;-81
2023/06/16 03:27:47;;;;;;;;;;;15.70;96.00;;;;;;5091751;28;20086;-81
2023/06/16 03:30:16;;;;;;;6.85;4.20;;;;;;;;;;5088925;28;19916;-82
2023/06/16 03:32:46;;;;;;;7.20;4.05;;;;;;;;;;5096543;28;20111;-82
2023/06/16 03:35:14;;;;;;;8.43;4.57;;;;;;;;;;5098126;28;20027;-83
2023/06/16 03:37:41;;;;;;;6.22;4.25;;;15.60;96.50;;;;;;5077972;28;20086;-81
2023/06/16 03:40:12;;;;;;;8.10;4.93;;;15.60;96.60;;;;;;5095740;28;20465;-83
2023/06/16 03:42:45;;;;;;;7.78;4.82;;;15.60;96.70;;;;;;5093715;28;20039;-82
2023/06/16 03:45:17;;;;;;;9.10;4.70;;;15.60;96.90;;;;;;5096248;28;20029;-82
2023/06/16 03:47:49;;;;;;;6.97;4.13;;;15.60;97.10;;;;;;5098017;28;20091;-82
2023/06/16 03:50:18;;;;;;;7.07;3.97;;;15.60;97.10;;;;;;5092619;28;20468;-83
2023/06/16 03:52:47;;;;;;;7.43;4.25;;;15.50;97.20;;;;;;5088475;28;20028;-82
2023/06/16 03:55:34;;;;;;;6.75;4.50;;;15.50;97.20;;;;;;5088374;28;20035;-82
2023/06/16 03:58:00;;;;;;;10.02;4.43;;;;;;;;;;5084409;28;20604;-82
2023/06/16 04:00:33;;;;;;;7.68;4.38;;;15.40;97.50;;;;;;5085786;28;20067;-81
2023/06/16 04:03:01;;;;;;;5.70;4.38;;;;;;;;;;5077751;28;20055;-82
2023/06/16 04:05:29;;;;;;;8.55;4.60;;;;;;;;;;5087645;28;20029;-82
2023/06/16 04:08:00;;;;;;;5.68;4.50;;;;;;;;;;5088958;28;20142;-82
2023/06/16 04:10:27;;;;;;;9.70;5.15;;;;;;;;;;5081644;28;20360;-82
2023/06/16 04:12:55;;;;;;;10.45;4.65;;;;;;;;;;5100393;28;20035;-81
2023/06/16 04:15:25;;;;;;;6.57;5.00;;;;;;;;;;5103463;28;20037;-82
2023/06/16 04:17:55;;;;;;;6.22;4.40;;;;;;;;;;5099380;28;20039;-82
2023/06/16 04:20:21;;;;;;;;;;;15.40;98.60;;;;;;5164785;23;20107;-78
2023/06/16 04:22:53;;;;;;;6.80;4.82;;;;;;;;;;5108643;28;19989;-80
2023/06/16 04:25:22;;;;;;;6.35;4.55;;;;;;;;;;5105089;28;20048;-77
2023/06/16 04:27:52;;;;;;;7.25;4.38;;;;;;;;;;5103504;28;20031;-79
2023/06/16 04:30:22;;;;;;;6.28;4.28;;;;;;;;;;5104035;28;20030;-79
2023/06/16 04:32:50;;;;;;;8.23;4.70;;;;;;;;;;5085566;28;20079;-75
2023/06/16 04:35:16;;;;;;;10.57;5.10;;;;;;;;;;5106474;28;20075;-77
2023/06/16 04:37:42;;;;;;;8.27;4.70;;;;;;;;;;5098885;28;20024;-77
2023/06/16 04:40:10;;;;;;;9.27;4.85;;;;;;;;;;5100764;28;20723;-77
2023/06/16 04:42:37;;;;;;;5.88;4.65;;;;;;;;;;5084840;28;20106;-75
2023/06/16 04:45:05;;;;;;;7.93;4.70;;;;;;;;;;5106340;28;20077;-78
2023/06/16 04:47:47;;;;;;;6.60;4.68;;;;;;;;;;5105392;28;20020;-76
2023/06/16 04:50:15;;;;;;;9.18;4.68;;;;;;;;;;5088284;28;20024;-77
2023/06/16 04:52:41;;;;;;;7.28;4.97;;;;;;;;;;5110202;28;20019;-76
2023/06/16 04:55:08;;;;;;;7.72;4.60;;;;;;;;;;5107217;27;20081;-76
2023/06/16 04:57:37;;;;;;;6.57;4.80;;;;;;;;;;5113012;28;20023;-76
2023/06/16 05:00:07;;;;;;;7.13;4.70;;;;;;;;;;5105297;28;20573;-78
2023/06/16 05:02:33;;;;;;;9.80;5.13;;;;;;;;;;5107711;28;20047;-77
2023/06/16 05:05:03;;;;;;;8.38;4.70;;;;;;;;;;5106211;28;20021;-78
2023/06/16 05:07:29;;;;;;;9.63;5.40;;;;;;;;;;5093311;28;20028;-75
2023/06/16 05:09:55;;;;;;;7.75;5.13;;;;;;;;;;5107779;28;20101;-77
2023/06/16 05:12:21;;;;;;;7.28;4.75;;;;;;;;;;5093085;28;20035;-76
2023/06/16 05:14:47;;;;;;;8.25;5.38;;;;;;;;;;5092312;28;20015;-76
2023/06/16 05:17:13;;;;;;;9.32;5.03;;;;;;;;;;5107845;28;20487;-75
2023/06/16 05:19:39;;;;;;;9.82;4.63;;;;;;;;;;5090997;28;20038;-75
2023/06/16 05:22:05;;;;;;;9.25;5.10;;;;;;;;;;5108869;28;20044;-75
2023/06/16 05:24:31;;;;;;;7.90;5.10;;;;;;;;;;5099116;28;20053;-76
2023/06/16 05:26:59;;;;;;;9.07;4.55;;;;;;;;;;5108443;28;20051;-75
2023/06/16 05:29:26;;;;;;;10.35;5.50;;;;;;;;;;5099946;28;20031;-75
2023/06/16 05:31:52;;;;;;;6.85;4.72;;;;;;;;;;5053218;28;20035;-76
2023/06/16 05:34:21;;;;;;;7.25;4.57;;;;;;;;;;5093823;28;20073;-75
2023/06/16 05:36:47;;;;;;;6.50;4.53;;;;;;;;;;5109235;28;20024;-76
2023/06/16 05:39:38;;;;;;;8.13;4.63;;;;;;;;;;5095790;27;20096;-76
2023/06/16 05:42:17;;;;;;;9.63;4.35;;;;;;;;;;5114345;27;20080;-75
2023/06/16 05:44:50;;;;;;;10.50;5.18;;;;;;;;;;5108054;27;20477;-76
2023/06/16 05:47:17;;;;;;;6.93;4.80;;;;;;;;;;5097742;28;21501;-76
2023/06/16 05:52:30;;;;;;;14.52;5.05;;;;;;;;;;5113832;28;20579;-75
2023/06/16 05:54:57;;;;;;;7.00;4.68;;;;;;;;;;5095001;28;20023;-76
2023/06/16 05:57:24;;;;;;;9.40;4.80;;;;;;;;;;5106802;28;20027;-76
2023/06/16 05:59:53;;;;;;;7.57;5.10;;;;;;;;;;5085079;28;20210;-75
2023/06/16 06:02:20;;;;;;;10.93;5.15;;;;;;;;;;5106930;28;20417;-75
2023/06/16 06:04:47;;;;;;;9.65;5.07;;;;;;;;;;5083264;28;20035;-76
2023/06/16 06:07:16;;;;;;;7.93;4.78;;;;;;;;;;5110786;28;20031;-77
2023/06/16 06:09:46;;;;;;;9.57;5.03;;;;;;;;;;5107210;28;20535;-76
2023/06/16 06:12:35;;;;;;;9.40;4.72;;;20.00;83.30;;;;;;5089559;28;20027;-77
2023/06/16 06:19:06;;;;;;;9.38;5.10;;;20.30;82.80;;;;;;5117852;28;20030;-76
2023/06/16 06:28:28;;;;;;;8.88;4.63;;;20.40;82.80;;;;;;5089883;28;19962;-79
2023/06/16 06:31:55;;;;;;;9.27;4.80;;;20.50;83.10;;;;;;5091295;28;20062;-77
2023/06/16 06:35:04;;;;;;;7.93;4.28;;;20.30;83.50;;;;;;5063585;28;20050;-76
2023/06/16 06:38:29;;;;;;;9.50;5.45;;;20.50;83.00;;;;;;5112619;28;20024;-77
2023/06/16 06:41:40;;;;;;;7.10;4.22;;;20.50;83.20;;;;;;5103783;28;20032;-76
2023/06/16 06:48:40;;;;;;;9.07;4.50;;;20.90;82.10;;;;;;5088224;28;20146;-78
2023/06/16 06:53:52;;;;;;;6.32;4.70;;;21.40;80.10;;;;;;5093805;28;20063;-76
2023/06/16 06:56:17;;;;;;;10.10;4.70;;;21.30;79.90;;;;;;5085448;28;20107;-79
2023/06/16 06:58:43;;;;;;;6.63;4.38;;;21.60;79.60;;;;;;5085835;28;20762;-83
2023/06/16 07:01:12;;;;;;;8.38;5.07;;;21.60;78.90;;;;;;5073263;28;20036;-78
2023/06/16 07:03:38;;;;;;;7.72;5.00;;;21.50;79.70;;;;;;5085675;28;20036;-77
2023/06/16 07:06:04;;;;;;;13.02;5.82;;;21.50;79.30;;;;;;5084406;28;20064;-76
2023/06/16 07:08:42;;;;;;;10.68;5.30;;;21.60;79.00;;;;;;5085930;28;20048;-76
2023/06/16 07:11:10;;;;;;;;;;;21.60;79.20;;;;;;5087301;28;20028;-76
2023/06/16 07:13:36;;;;;;;9.30;5.32;;;21.60;78.40;;;;;;5090765;28;20365;-76
2023/06/16 07:16:04;;;;;;;11.80;5.10;;;21.70;78.20;;;;;;5090767;28;20493;-77
2023/06/16 07:18:34;;;;;;;9.57;5.07;;;21.80;78.50;;;;;;5085629;28;20119;-76
2023/06/16 07:21:00;;;;;;;8.43;4.95;;;21.90;78.00;;;;;;5085539;28;20055;-77
2023/06/16 07:23:25;;;;;;;7.18;4.80;;;22.10;77.50;;;;;;5067951;28;20554;-76
2023/06/16 07:25:52;;;;;;;13.20;4.97;;;;;;;;;;5093554;22;20036;-82
2023/06/16 07:28:18;;;;;;;7.30;5.00;;;;;;;;;;5093449;28;20032;-85
2023/06/16 07:30:44;;;;;;;10.90;5.10;;;;;;;;;;5087132;28;20028;-83
2023/06/16 07:33:10;;;;;;;12.02;4.72;;;;;;;;;;5102684;28;20055;-83
2023/06/16 07:35:36;;;;;;;7.07;4.75;;;;;;;;;;5085164;28;20059;-81
2023/06/16 07:38:02;;;;;;;14.35;4.35;;;;;;;;;;5090590;28;20021;-82
2023/06/16 07:40:28;;;;;;;8.07;4.60;;;;;;;;;;5087569;28;20028;-81
2023/06/16 07:42:54;;;;;;;10.18;4.60;;;;;;;;;;5085819;28;20028;-84
2023/06/16 07:45:20;;;;;;;10.55;4.80;;;;;;;;;;5086632;28;20084;-82
2023/06/16 07:47:46;;;;;;;6.85;4.32;;;;;;;;;;5084871;28;20039;-83
2023/06/16 07:50:13;;;;;;;16.67;4.65;;;;;;;;;;5086652;28;20104;-82
2023/06/16 07:52:40;;;;;;;12.05;4.38;;;;;;;;;;5084630;28;20024;-83
2023/06/16 07:55:06;;;;;;;8.45;4.15;;;;;;;;;;5086773;28;20020;-82
2023/06/16 07:57:33;;;;;;;9.30;4.32;;;;;;;;;;5088109;28;20020;-81
2023/06/16 07:59:59;;;;;;;7.88;4.53;;;;;;;;;;5090474;28;20442;-84
2023/06/16 08:02:25;;;;;;;11.35;4.72;;;;;;;;;;5089626;28;20024;-81
2023/06/16 08:04:51;;;;;;;11.73;4.38;;;;;;;;;;5086707;28;20028;-81
2023/06/16 08:07:17;;;;;;;9.10;3.97;;;;;;;;;;5091675;28;20040;-82
2023/06/16 08:09:43;;;;;;;9.65;4.40;;;;;;;;;;5085419;28;20028;-83
2023/06/16 08:12:09;;;;;;;8.68;4.10;;;23.80;69.20;;;;;;5086603;28;20054;-82
2023/06/16 08:14:36;;;;;;;9.57;4.65;;;;;;;;;;5083948;28;20028;-83
2023/06/16 08:17:02;;;;;;;9.32;4.20;;;;;;;;;;5088474;28;20093;-83
2023/06/16 08:19:28;;;;;;;11.35;4.90;;;;;;;;;;5087314;28;20021;-83
2023/06/16 08:21:54;;;;;;;11.18;4.85;;;;;;;;;;5088096;28;20031;-81
2023/06/16 08:24:20;;;;;;;11.57;3.83;;;;;;;;;;5087450;28;20032;-83
2023/06/16 08:26:46;;;;;;;11.25;4.40;;;;;;;;;;5094190;28;20059;-83
2023/06/16 08:29:12;;;;;;;12.77;4.55;;;;;;;;;;5092989;28;20032;-82
2023/06/16 08:31:38;;;;;;;8.57;4.03;;;;;;;;;;5090446;28;20024;-81
2023/06/16 08:34:05;;;;;;;8.35;4.05;;;;;;;;;;5093926;28;20035;-82
2023/06/16 08:36:33;;;;;;;7.07;4.32;;;;;;;;;;5097083;28;20513;-84
2023/06/16 08:38:59;;;;;;;8.20;3.80;;;;;;;;;;5094349;28;20040;-83
2023/06/16 08:41:26;;;;;;;9.25;3.90;;;24.90;66.10;;;;;;5098113;28;20028;-81
2023/06/16 08:43:53;;;;;;;7.38;3.67;;;;;;;;;;5094830;28;20050;-79
2023/06/16 08:46:19;;;;;;;8.40;4.07;;;;;;;;;;5093393;28;20032;-82
2023/06/16 08:48:45;;;;;;;9.25;3.88;;;;;;;;;;5093804;28;20047;-81
2023/06/16 08:51:14;;;;;;;5.63;3.42;;;;;;;;;;5094226;28;20024;-86
2023/06/16 08:53:43;;;;;;;8.57;3.63;;;25.30;63.50;;;;;;5089119;28;20028;-82
2023/06/16 08:56:10;;;;;;;18.15;4.78;;;25.50;63.60;;;;;;5090869;28;20051;-84
2023/06/16 08:58:37;;;;;;;13.50;3.63;;;25.60;62.00;;;;;;5090206;28;20028;-85
2023/06/16 09:01:07;;;;;;;18.50;4.18;;;;;;;;;;5089586;28;20033;-84
2023/06/16 09:03:34;;;;;;;6.53;3.60;;;25.80;61.00;;;;;;5090687;28;20916;-84
2023/06/16 09:06:00;;;;;;;8.50;3.53;;;;;;;;;;5089356;28;20115;-86
2023/06/16 09:08:27;;;;;;;6.03;3.72;;;;;;;;;;5093602;28;20098;-83
2023/06/16 09:10:55;;;;;;;7.00;3.45;;;;;;;;;;5088019;28;20088;-85
2023/06/16 09:13:21;;;;;;;7.28;3.80;;;;;;;;;;5095461;28;20119;-82
2023/06/16 09:15:49;;;;;;;6.15;3.40;;;25.70;61.60;;;;;;5091998;28;20037;-83
2023/06/16 09:18:15;;;;;;;6.55;4.05;;;;;;;;;;5091207;28;20548;-85
2023/06/16 09:20:53;;;;;;;7.05;3.90;;;;;;;;;;5088516;28;20123;-86
2023/06/16 09:23:28;;;;;;;6.15;3.60;;;25.90;59.70;;;;;;5092308;28;20024;-85
2023/06/16 09:25:54;;;;;;;8.95;4.13;;;;;;;;;;5094472;28;20128;-84
2023/06/16 09:28:33;;;;;;;9.35;3.90;;;25.80;60.10;;;;;;5091134;28;20120;-83
2023/06/16 09:31:12;;;;;;;5.97;3.50;;;25.80;60.20;;;;;;5088248;28;20057;-84
2023/06/16 09:33:38;;;;;;;8.32;4.05;;;;;;;;;;5091242;28;20274;-85
2023/06/16 09:36:05;;;;;;;7.35;3.63;;;;;;;;;;5090507;28;20035;-86
2023/06/16 09:38:38;;;;;;;5.32;3.45;;;26.00;60.60;;;;;;5089001;28;20024;-85
2023/06/16 09:41:18;;;;;;;11.00;4.00;;;26.30;61.00;;;;;;5088613;28;20031;-84
2023/06/16 09:43:44;;;;;;;6.70;4.07;;;;;;;;;;5091012;28;20127;-86
2023/06/16 09:46:14;;;;;;;5.97;3.55;;;;;;;;;;5095409;28;20024;-87
2023/06/16 09:48:49;;;;;;;4.78;3.45;;;;;;;;;;5095387;28;20027;-85
2023/06/16 09:51:19;;;;;;;9.63;4.10;;;;;;;;;;5072602;28;20040;-86
2023/06/16 09:53:45;;;;;;;;;;;26.70;57.70;;;;;;5098657;28;20024;-83
2023/06/16 09:56:14;;;;;;;12.55;3.95;;;;;;;;;;5092958;28;19948;-85
2023/06/16 09:58:40;;;;;;;21.13;4.05;;;;;;;;;;5092595;28;20032;-86
2023/06/16 10:01:06;;;;;;;5.78;3.50;;;;;;;;;;5095638;28;20039;-85
2023/06/16 10:03:33;;;;;;;5.47;3.53;;;;;;;;;;5088442;28;20028;-87
2023/06/16 10:06:05;;;;;;;6.75;3.67;;;;;;;;;;5093199;28;20032;-85
2023/06/16 10:08:33;;;;;;;7.85;3.60;;;;;;;;;;5076650;28;20065;-87
2023/06/16 10:11:00;;;;;;;6.97;3.80;;;;;;;;;;5092379;28;20023;-87
2023/06/16 10:13:27;;;;;;;6.43;3.72;;;;;;;;;;5089980;28;20025;-86
2023/06/16 10:15:55;;;;;;;15.27;4.28;;;26.90;54.10;;;;;;5093355;28;20481;-86
2023/06/16 10:18:22;;;;;;;5.90;3.40;;;;;;;;;;5092858;28;20035;-86
2023/06/16 10:20:48;;;;;;;5.95;3.67;;;;;;;;;;5093002;28;20031;-85
2023/06/16 10:23:14;;;;;;;4.55;3.60;;;;;;;;;;5091814;28;20119;-87
2023/06/16 10:25:41;;;;;;;6.45;3.67;;;;;;;;;;5094000;28;20038;-87
2023/06/16 10:28:11;;;;;;;5.35;3.35;;;;;;;;;;5089597;28;20047;-87
2023/06/16 10:30:41;;;;;;;7.75;3.50;;;;;;;;;;5089929;28;20051;-87
2023/06/16 10:33:16;;;;;;;5.40;3.40;;;;;;;;;;5090732;28;20020;-84
2023/06/16 10:35:49;;;;;;;5.75;3.20;;;;;;;;;;5093634;28;20031;-84
2023/06/16 10:38:15;;;;;;;6.60;3.63;;;;;;;;;;5085329;28;20040;-86
2023/06/16 10:40:42;;;;;;;6.50;4.05;;;;;;;;;;5088006;28;20032;-86
2023/06/16 10:43:10;;;;;;;5.15;3.63;;;;;;;;;;5087765;28;20028;-85
2023/06/16 10:45:39;;;;;;;9.23;4.30;;;;;;;;;;5094382;28;20024;-85
2023/06/16 10:48:11;;;;;;;6.38;3.75;;;;;;;;;;5088859;28;20035;-86
2023/06/16 10:50:41;;;;;;;12.63;3.88;;;;;;;;;;5088230;28;20020;-84
2023/06/16 10:53:11;;;;;;;9.25;3.90;;;;;;;;;;5088120;28;20115;-85
2023/06/16 10:55:41;;;;;;;14.52;4.05;;;;;;;;;;5091160;28;20040;-87
2023/06/16 10:58:36;;;;;;;7.47;3.80;;;;;;;;;;5090943;28;20047;-88
2023/06/16 11:01:02;;;;;;;10.57;3.45;;;;;;;;;;5076043;28;20040;-86
2023/06/16 11:03:38;;;;;;;6.45;3.20;;;;;;;;;;5088877;28;20032;-87
2023/06/16 11:06:08;;;;;;;8.93;4.00;;;;;;;;;;5095429;28;20161;-86
2023/06/16 11:09:00;;;;;;;6.50;3.60;;;;;;;;;;5095290;28;20485;-87
2023/06/16 11:11:33;;;;;;;6.55;4.00;;;;;;;;;;5097717;28;20035;-87
2023/06/16 11:14:00;;;;;;;9.23;4.38;;;;;;;;;;5101397;28;20091;-86
2023/06/16 11:16:26;;;;;;;7.55;4.05;;;;;;;;;;5105752;28;20056;-89
2023/06/16 11:18:54;;;;;;;7.10;3.90;;;;;;;;;;5108035;28;20058;-88
2023/06/16 11:21:30;;;;;;;6.07;3.70;;;;;;;;;;5106040;28;20036;-87
2023/06/16 11:24:07;;;;;;;6.47;3.78;;;;;;;;;;5108717;28;20048;-88
2023/06/16 11:26:36;;;;;;;6.47;3.90;;;;;;;;;;5102231;28;20024;-90
2023/06/16 11:29:01;;;;;;;6.20;3.53;;;;;;;;;;5108898;28;20008;-88
2023/06/16 11:31:31;;;;;;;5.22;3.47;;;;;;;;;;5111365;28;20258;-88
2023/06/16 11:33:57;;;;;;;5.88;3.95;;;;;;;;;;5109165;28;20046;-89
2023/06/16 11:36:27;;;;;;;6.50;3.65;;;;;;;;;;5103532;28;20094;-88
2023/06/16 11:38:56;;;;;;;4.80;3.67;;;;;;;;;;5106645;28;20019;-91
2023/06/16 11:41:43;;;;;;;8.63;3.72;;;;;;;;;;5110512;28;20019;-86
2023/06/16 11:44:13;;;;;;;8.10;3.95;;;;;;;;;;5104836;28;20023;-86
2023/06/16 11:46:39;;;;;;;7.55;3.67;;;;;;;;;;5106680;28;20044;-88
2023/06/16 11:49:13;;;;;;;7.28;3.65;;;;;;;;;;5104283;28;20039;-88
2023/06/16 11:51:45;;;;;;;6.82;3.63;;;;;;;;;;5099091;28;20119;-86
2023/06/16 11:54:11;;;;;;;6.13;3.60;;;;;;;;;;5095302;28;20024;-85
2023/06/16 11:56:39;;;;;;;5.72;3.60;;;;;;;;;;5100166;28;20048;-86
2023/06/16 11:59:05;;;;;;;6.05;3.83;;;;;;;;;;5095398;28;20025;-86
2023/06/16 12:01:35;;;;;;;6.18;4.20;;;;;;;;;;5105118;28;20024;-86
2023/06/16 12:04:01;;;;;;;;;;;27.50;53.40;;;;;;5103660;28;20043;-87
2023/06/16 12:06:27;;;;;;;9.60;3.78;;;;;;;;;;5107338;28;19912;-87
2023/06/16 12:08:58;;;;;;;7.13;4.00;;;;;;;;;;5102097;28;20110;-87
2023/06/16 12:11:28;;;;;;;8.27;4.00;;;;;;;;;;5109101;28;20016;-86
2023/06/16 12:14:00;;;;;;;7.28;4.00;;;;;;;;;;5099084;28;20035;-86
2023/06/16 12:16:27;;;;;;;5.80;4.15;;;;;;;;;;5100971;28;20042;-87
2023/06/16 12:18:53;;;;;;;6.97;3.97;;;;;;;;;;5097513;28;20032;-85
2023/06/16 12:21:20;;;;;;;9.07;4.35;;;;;;;;;;5110855;28;20004;-87
2023/06/16 12:23:53;;;;;;;7.95;4.00;;;28.60;51.10;;;;;;5112016;28;20012;-89
2023/06/16 12:26:27;;;;;;;8.88;4.22;;;;;;;;;;5105539;28;20048;-88
2023/06/16 12:28:54;;;;;;;5.20;3.88;;;;;;;;;;5115571;28;20035;-89
2023/06/16 12:31:21;;;;;;;6.80;3.88;;;;;;;;;;5103419;28;20061;-87
2023/06/16 12:33:51;;;;;;;5.55;3.70;;;;;;;;;;5092933;28;20020;-87
2023/06/16 12:36:20;;;;;;;9.07;3.92;;;;;;;;;;5108319;28;20040;-87
2023/06/16 12:38:50;;;;;;;;;;;29.10;49.60;;;;;;5104332;28;20040;-86
2023/06/16 12:41:36;;;;;;;7.40;3.90;;;;;;;;;;5113101;28;20442;-88
2023/06/16 12:44:05;;;;;;;5.03;3.83;;;;;;;;;;5100268;28;20032;-87
2023/06/16 12:46:48;;;;;;;8.50;3.92;;;;;;;;;;5087137;28;20048;-87
2023/06/16 12:49:26;;;;;;;6.93;4.10;;;;;;;;;;5099848;28;20034;-87
2023/06/16 12:51:55;;;;;;;5.80;4.20;;;;;;;;;;5094489;28;20027;-86
2023/06/16 12:54:23;;;;;;;7.38;4.32;;;;;;;;;;5086869;28;20043;-88
2023/06/16 12:56:49;;;;;;;6.82;4.13;;;;;;;;;;5097675;28;20024;-87
2023/06/16 12:59:29;;;;;;;6.28;4.13;;;;;;;;;;5096532;28;20062;-88
2023/06/16 13:02:09;;;;;;;7.78;4.03;;;;;;;;;;5094712;28;20071;-86
2023/06/16 13:04:38;;;;;;;;;;;;;;;;;;5097371;28;20114;-87
2023/06/16 13:07:33;;;;;;;8.17;4.20;;;;;;;;;;5093053;28;19912;-86
2023/06/16 13:09:59;;;;;;;10.60;4.60;;;;;;;;;;5077470;28;20029;-89
2023/06/16 13:12:28;;;;;;;5.85;4.00;;;;;;;;;;5098080;28;20036;-87
2023/06/16 13:15:18;;;;;;;8.80;4.45;;;;;;;;;;5096346;28;20024;-86
2023/06/16 13:17:44;;;;;;;5.18;3.97;;;;;;;;;;5094332;28;20028;-86
2023/06/16 13:20:36;;;;;;;5.25;4.10;;;;;;;;;;5090119;28;20037;-86
2023/06/16 13:23:21;;;;;;;6.43;4.00;;;;;;;;;;5091229;28;20028;-86
2023/06/16 13:25:48;;;;;;;8.48;4.43;;;;;;;;;;5092494;28;20098;-87
2023/06/16 13:28:14;;;;;;;10.90;4.50;;;;;;;;;;5090517;28;20031;-86
2023/06/16 13:30:40;;;;;;;5.85;4.40;;;;;;;;;;5091766;28;20095;-88
2023/06/16 13:33:09;;;;;;;9.00;3.90;;;;;;;;;;5085245;28;20131;-86
2023/06/16 13:35:56;;;;;;;8.65;4.15;;;;;;;;;;5096280;28;20028;-88
2023/06/16 13:38:24;;;;;;;8.98;4.35;;;;;;;;;;5091330;28;20037;-87
2023/06/16 13:40:53;;;;;;;6.13;4.45;;;;;;;;;;5094495;28;20016;-86
2023/06/16 13:43:27;;;;;;;8.80;3.95;;;;;;;;;;5091219;28;20020;-86
2023/06/16 13:45:58;;;;;;;8.70;4.07;;;;;;;;;;5089677;28;20397;-86
2023/06/16 13:48:27;;;;;;;7.60;3.97;;;;;;;;;;5093830;28;20103;-86
2023/06/16 13:50:57;;;;;;;8.38;3.80;;;;;;;;;;5093039;28;20039;-86
2023/06/16 13:53:36;;;;;;;5.60;4.00;;;;;;;;;;5094420;28;20024;-87
2023/06/16 13:56:02;;;;;;;6.35;3.53;;;;;;;;;;5098229;28;20028;-85
2023/06/16 13:58:37;;;;;;;7.78;4.13;;;;;;;;;;5091716;28;20028;-86
2023/06/16 14:01:53;;;;;;;7.03;3.88;;;;;;;;;;5108433;28;20032;-88
2023/06/16 14:04:04;;;;;;;6.68;3.90;;;;;;;;;;5087794;28;20047;-86
2023/06/16 14:06:31;;;;;;;5.25;3.47;;;;;;;;;;5088957;28;20055;-88
2023/06/16 14:08:59;;;;;;;10.15;3.78;;;;;;;;;;5087969;28;20047;-87
2023/06/16 14:11:25;;;;;;;8.18;4.03;;;;;;;;;;5093087;28;20032;-86
2023/06/16 14:13:52;;;;;;;8.45;3.65;;;;;;;;;;5096384;28;20024;-88
2023/06/16 14:16:18;;;;;;;6.63;3.88;;;;;;;;;;5071021;28;20036;-86
2023/06/16 14:18:44;;;;;;;4.75;3.58;;;;;;;;;;5088737;28;20032;-86
2023/06/16 14:21:10;;;;;;;5.72;3.55;;;;;;;;;;5100026;28;20061;-85
2023/06/16 14:23:36;;;;;;;6.47;3.10;;;;;;;;;;5095992;28;20036;-86
2023/06/16 14:26:02;;;;;;;5.38;3.13;;;;;;;;;;5096841;28;20028;-88
2023/06/16 14:28:28;;;;;;;6.35;3.90;;;;;;;;;;5066337;28;20613;-87
2023/06/16 14:30:54;;;;;;;6.85;3.90;;;;;;;;;;5083886;28;20031;-87
2023/06/16 14:33:20;;;;;;;4.60;3.65;;;;;;;;;;5090295;28;20024;-86
2023/06/16 14:35:46;;;;;;;7.72;3.40;;;;;;;;;;5083483;28;20045;-87
2023/06/16 14:38:13;;;;;;;5.40;3.58;;;;;;;;;;5087788;28;20047;-86
2023/06/16 14:40:42;;;;;;;7.45;3.60;;;;;;;;;;5092960;28;20024;-85
2023/06/16 14:43:08;;;;;;;8.15;3.60;;;;;;;;;;5087888;28;20039;-87
2023/06/16 14:45:34;;;;;;;4.68;3.58;;;;;;;;;;5081217;28;20490;-87
2023/06/16 14:48:00;;;;;;;7.13;3.65;;;;;;;;;;5087564;28;20081;-86
2023/06/16 14:50:29;;;;;;;6.20;3.50;;;;;;;;;;5088348;28;20024;-88
2023/06/16 14:52:55;;;;;;;6.10;3.78;;;;;;;;;;5084559;28;20024;-86
2023/06/16 14:55:21;;;;;;;9.90;3.58;;;;;;;;;;5088955;28;20020;-87
2023/06/16 14:57:47;;;;;;;7.20;3.53;;;;;;;;;;5086161;28;20089;-85